Time;durP1;ratioP1;P1;durP2;ratioP2;P2;SDS_P1;SDS_P2;PMS_P1;PMS_P2;Temp;Humidity;BMP_temperature;BMP_pressure;BME280_temperature;BME280_humidity;BME280_pressure;Samples;Min_cycle;Max_cycle;Signal;HPM_P1;HPM_P2
2020/12/29 00:01:50;;;;;;;1.52;1.20;;;2.10;99.90;;;;;;5002342;28;20353;-71
2020/12/29 00:04:19;;;;;;;2.28;1.30;;;2.10;99.90;;;;;;5002566;28;20226;-71
2020/12/29 00:06:48;;;;;;;1.65;1.55;;;2.10;99.90;;;;;;5002939;28;20815;-71
2020/12/29 00:09:23;;;;;;;2.10;1.50;;;1.90;99.90;;;;;;5002739;28;20199;-70
2020/12/29 00:11:50;;;;;;;1.77;1.38;;;1.90;99.90;;;;;;5002221;28;20289;-70
2020/12/29 00:14:18;;;;;;;1.70;1.48;;;1.90;99.90;;;;;;5002575;28;20234;-71
2020/12/29 00:16:48;;;;;;;1.58;1.33;;;1.90;99.90;;;;;;5006243;28;20674;-70
2020/12/29 00:19:17;;;;;;;1.80;1.10;;;1.90;99.90;;;;;;5006996;28;20715;-70
2020/12/29 00:21:44;;;;;;;1.67;1.20;;;1.90;99.90;;;;;;5005949;28;20214;-71
2020/12/29 00:24:10;;;;;;;1.27;1.17;;;1.90;99.90;;;;;;5006017;28;20226;-70
2020/12/29 00:26:37;;;;;;;2.15;1.20;;;1.90;99.90;;;;;;5006648;28;20209;-70
2020/12/29 00:29:04;;;;;;;1.48;1.20;;;1.90;99.90;;;;;;5007947;28;20606;-70
2020/12/29 00:31:30;;;;;;;1.30;1.20;;;2.00;99.90;;;;;;5010038;28;20257;-70
2020/12/29 00:33:58;;;;;;;1.20;1.10;;;2.00;99.90;;;;;;5010244;28;20230;-71
2020/12/29 00:36:25;;;;;;;1.15;1.05;;;2.00;99.90;;;;;;5010285;28;20211;-70
2020/12/29 00:38:51;;;;;;;1.50;1.23;;;2.10;99.90;;;;;;5010554;28;20207;-70
2020/12/29 00:41:18;;;;;;;1.48;1.10;;;2.10;99.90;;;;;;5010392;28;20264;-70
2020/12/29 00:43:45;;;;;;;1.38;0.90;;;2.20;99.90;;;;;;5009764;28;20222;-70
2020/12/29 00:46:13;;;;;;;1.25;1.00;;;2.20;99.90;;;;;;5010190;28;20210;-71
2020/12/29 00:48:40;;;;;;;1.08;0.90;;;2.30;99.90;;;;;;5010121;28;20206;-71
2020/12/29 00:51:09;;;;;;;1.05;0.90;;;2.40;99.90;;;;;;5010138;28;20202;-71
2020/12/29 00:53:36;;;;;;;1.05;0.77;;;2.40;99.90;;;;;;5008907;28;20796;-71
2020/12/29 00:56:03;;;;;;;1.10;1.00;;;2.40;99.90;;;;;;5009448;28;20206;-69
2020/12/29 00:58:29;;;;;;;1.10;1.00;;;2.40;99.90;;;;;;5009537;28;20214;-69
2020/12/29 01:03:24;;;;;;;1.63;1.10;;;2.50;99.90;;;;;;4989048;28;20231;-73
2020/12/29 01:05:51;;;;;;;1.40;1.00;;;2.60;99.90;;;;;;4992503;28;20663;-74
2020/12/29 01:08:17;;;;;;;1.45;1.10;;;2.60;99.90;;;;;;4992605;28;20265;-73
2020/12/29 01:10:44;;;;;;;1.35;1.25;;;2.60;99.90;;;;;;4992533;28;20245;-73
2020/12/29 01:13:10;;;;;;;1.00;0.90;;;2.50;99.90;;;;;;4991930;28;20227;-74
2020/12/29 01:15:36;;;;;;;1.25;1.00;;;2.40;99.90;;;;;;4992379;28;20229;-73
2020/12/29 01:18:03;;;;;;;1.33;1.23;;;2.40;99.90;;;;;;4992662;28;20230;-72
2020/12/29 01:20:30;;;;;;;1.15;1.05;;;2.30;99.90;;;;;;4992231;28;20207;-74
2020/12/29 01:22:56;;;;;;;0.90;0.85;;;2.20;99.90;;;;;;4991888;28;21884;-73
2020/12/29 01:25:23;;;;;;;1.85;1.30;;;2.20;99.90;;;;;;4991963;28;20207;-73
2020/12/29 01:27:50;;;;;;;1.38;1.00;;;2.20;99.90;;;;;;4989384;28;20214;-73
2020/12/29 01:30:17;;;;;;;1.70;1.20;;;2.10;99.90;;;;;;4990869;28;20195;-73
2020/12/29 01:32:43;;;;;;;1.15;1.05;;;2.20;99.90;;;;;;4989824;28;20207;-73
2020/12/29 01:35:10;;;;;;;1.20;1.10;;;2.20;99.90;;;;;;4990492;28;20702;-72
2020/12/29 01:37:41;;;;;;;1.10;1.00;;;2.20;99.90;;;;;;4990928;28;20207;-72
2020/12/29 01:40:07;;;;;;;1.58;1.15;;;2.20;99.90;;;;;;4991703;28;20261;-73
2020/12/29 01:42:33;;;;;;;1.58;1.10;;;2.20;99.90;;;;;;4991407;28;20207;-72
2020/12/29 01:44:59;;;;;;;1.90;1.50;;;2.20;99.90;;;;;;4991926;28;20226;-73
2020/12/29 01:47:26;;;;;;;1.33;1.23;;;2.20;99.90;;;;;;4991732;28;20210;-72
2020/12/29 01:49:53;;;;;;;1.00;0.90;;;2.30;99.90;;;;;;4992033;28;20215;-73
2020/12/29 01:52:19;;;;;;;1.10;1.00;;;2.30;99.90;;;;;;4991489;28;20596;-73
2020/12/29 01:54:47;;;;;;;2.00;1.20;;;2.30;99.90;;;;;;4991580;28;20880;-72
2020/12/29 01:57:13;;;;;;;1.10;1.00;;;2.30;99.90;;;;;;4991816;28;20207;-73
2020/12/29 01:59:39;;;;;;;1.20;1.10;;;2.40;99.90;;;;;;4991509;28;20261;-73
2020/12/29 02:02:05;;;;;;;1.73;1.33;;;2.40;99.90;;;;;;4990993;28;20217;-73
2020/12/29 02:04:32;;;;;;;1.10;1.00;;;2.50;99.90;;;;;;4991460;28;20223;-73
2020/12/29 02:06:59;;;;;;;1.05;0.95;;;2.50;99.90;;;;;;4991700;28;20686;-73
2020/12/29 02:09:25;;;;;;;1.33;1.20;;;2.50;99.90;;;;;;4991838;28;20211;-74
2020/12/29 02:11:53;;;;;;;1.45;1.00;;;2.50;99.90;;;;;;4990858;28;20261;-74
2020/12/29 02:14:19;;;;;;;0.90;0.80;;;2.60;99.90;;;;;;4991148;28;20884;-74
2020/12/29 02:16:45;;;;;;;1.20;0.95;;;2.60;99.90;;;;;;4991242;28;20604;-73
2020/12/29 02:19:11;;;;;;;1.20;0.93;;;2.60;99.90;;;;;;4991310;28;20203;-73
2020/12/29 02:21:38;;;;;;;1.70;1.08;;;2.70;99.90;;;;;;4990464;28;20207;-73
2020/12/29 02:24:07;;;;;;;1.90;1.05;;;2.70;99.90;;;;;;4990888;28;20305;-73
2020/12/29 02:26:34;;;;;;;1.52;0.95;;;2.70;99.90;;;;;;4991028;28;20698;-73
2020/12/29 02:29:02;;;;;;;1.00;0.90;;;2.80;99.90;;;;;;4991251;28;20210;-74
2020/12/29 02:31:28;;;;;;;0.95;0.82;;;2.80;99.90;;;;;;4990824;28;20219;-73
2020/12/29 02:33:54;;;;;;;1.08;0.80;;;2.80;99.90;;;;;;4990457;28;20231;-73
2020/12/29 02:36:21;;;;;;;1.23;0.80;;;2.80;99.90;;;;;;4990658;28;20674;-74
2020/12/29 02:38:47;;;;;;;1.23;1.13;;;2.90;99.90;;;;;;4989967;28;20276;-74
2020/12/29 02:41:16;;;;;;;1.13;1.00;;;2.90;99.90;;;;;;4990830;28;20670;-73
2020/12/29 02:43:43;;;;;;;1.40;0.90;;;3.00;99.90;;;;;;4990053;28;20592;-73
2020/12/29 02:46:11;;;;;;;1.10;1.00;;;3.00;99.90;;;;;;4990673;28;20203;-73
2020/12/29 02:48:37;;;;;;;1.10;0.85;;;3.00;99.90;;;;;;4990365;28;20206;-73
2020/12/29 02:51:03;;;;;;;1.33;0.88;;;3.00;99.90;;;;;;4990687;28;20228;-73
2020/12/29 02:53:29;;;;;;;1.00;0.90;;;3.00;99.90;;;;;;4989852;28;20657;-73
2020/12/29 02:55:55;;;;;;;1.83;1.08;;;3.00;99.90;;;;;;4990544;28;20219;-73
2020/12/29 02:58:22;;;;;;;1.25;0.80;;;2.90;99.90;;;;;;4990431;28;20575;-73
2020/12/29 03:00:49;;;;;;;0.80;0.70;;;3.00;99.90;;;;;;4990237;28;20671;-73
2020/12/29 03:03:15;;;;;;;1.10;0.80;;;3.00;99.90;;;;;;4989843;28;20238;-73
2020/12/29 03:05:41;;;;;;;1.00;0.77;;;3.00;99.90;;;;;;4990191;28;20581;-75
2020/12/29 03:08:09;;;;;;;0.85;0.80;;;2.90;99.90;;;;;;4990336;28;20199;-74
2020/12/29 03:10:36;;;;;;;1.10;0.70;;;2.80;99.90;;;;;;4989905;28;20207;-75
2020/12/29 03:13:02;;;;;;;1.70;0.90;;;2.80;99.90;;;;;;4989443;28;20777;-75
2020/12/29 03:15:29;;;;;;;1.15;0.90;;;2.70;99.90;;;;;;4989916;28;20242;-74
2020/12/29 03:17:55;;;;;;;0.80;0.75;;;2.70;99.90;;;;;;4990069;28;20203;-74
2020/12/29 03:20:21;;;;;;;0.93;0.80;;;2.60;99.90;;;;;;4989788;28;20262;-72
2020/12/29 03:22:47;;;;;;;0.77;0.75;;;2.60;99.90;;;;;;4989445;28;20210;-74
2020/12/29 03:25:13;;;;;;;0.90;0.70;;;2.60;99.90;;;;;;4989961;28;20630;-74
2020/12/29 03:27:40;;;;;;;0.90;0.80;;;2.50;99.90;;;;;;4989993;28;20207;-74
2020/12/29 03:30:06;;;;;;;2.10;0.90;;;2.50;99.90;;;;;;4989892;28;20556;-74
2020/12/29 03:32:33;;;;;;;1.85;0.70;;;2.50;99.90;;;;;;4989125;28;20245;-74
2020/12/29 03:34:59;;;;;;;0.80;0.70;;;2.50;99.90;;;;;;4989686;28;20227;-73
2020/12/29 03:37:25;;;;;;;1.52;0.80;;;2.40;99.90;;;;;;4989612;28;20203;-73
2020/12/29 03:39:51;;;;;;;0.85;0.85;;;2.40;99.90;;;;;;4989801;28;20209;-74
2020/12/29 03:42:18;;;;;;;1.00;0.80;;;2.40;99.90;;;;;;4989331;28;20672;-73
2020/12/29 03:44:44;;;;;;;1.00;0.80;;;2.40;99.90;;;;;;4989480;28;20219;-73
2020/12/29 03:47:10;;;;;;;1.00;0.90;;;2.30;99.90;;;;;;4989555;28;20663;-73
2020/12/29 03:49:37;;;;;;;3.00;1.00;;;2.30;99.90;;;;;;4989426;28;20214;-73
2020/12/29 03:52:03;;;;;;;0.88;0.77;;;2.30;99.90;;;;;;4989459;28;20203;-74
2020/12/29 03:54:29;;;;;;;0.93;0.77;;;2.30;99.90;;;;;;4989141;28;20252;-73
2020/12/29 03:56:55;;;;;;;1.00;0.80;;;2.30;99.90;;;;;;4989965;28;20744;-73
2020/12/29 03:59:22;;;;;;;0.95;0.85;;;2.30;99.90;;;;;;4989464;28;20207;-73
2020/12/29 04:01:48;;;;;;;0.70;0.68;;;2.30;99.90;;;;;;4988931;28;20582;-73
2020/12/29 04:04:14;;;;;;;1.45;0.80;;;2.30;99.90;;;;;;4989441;28;20227;-73
2020/12/29 04:06:41;;;;;;;0.80;0.70;;;2.40;99.90;;;;;;4989140;28;20204;-73
2020/12/29 04:09:07;;;;;;;0.80;0.80;;;2.40;99.90;;;;;;4989431;28;20218;-73
2020/12/29 04:11:34;;;;;;;1.33;1.02;;;2.40;99.90;;;;;;4988971;28;20693;-73
2020/12/29 04:14:00;;;;;;;1.13;0.80;;;2.40;99.90;;;;;;4989129;28;20231;-74
2020/12/29 04:16:26;;;;;;;1.10;0.75;;;2.50;99.90;;;;;;4989228;28;20210;-73
2020/12/29 04:18:52;;;;;;;1.00;0.80;;;2.50;99.90;;;;;;4989844;28;20639;-74
2020/12/29 04:21:18;;;;;;;1.00;0.90;;;2.50;99.90;;;;;;4989427;28;20199;-74
2020/12/29 04:23:46;;;;;;;2.13;0.90;;;2.50;99.90;;;;;;4988918;28;20238;-74
2020/12/29 04:26:13;;;;;;;0.80;0.70;;;2.50;99.90;;;;;;4989431;28;20325;-73
2020/12/29 04:28:39;;;;;;;1.42;0.88;;;2.40;99.90;;;;;;4989043;28;20207;-73
2020/12/29 04:31:08;;;;;;;2.35;0.90;;;2.40;99.90;;;;;;4989083;28;20203;-73
2020/12/29 04:33:35;;;;;;;1.67;1.13;;;2.40;99.90;;;;;;4988396;28;20774;-74
2020/12/29 04:36:01;;;;;;;0.98;0.90;;;2.40;99.90;;;;;;4989270;28;20227;-73
2020/12/29 04:38:27;;;;;;;1.27;0.90;;;2.40;99.90;;;;;;4988911;28;20223;-73
2020/12/29 04:40:54;;;;;;;2.28;1.00;;;2.40;99.90;;;;;;4989051;28;20207;-74
2020/12/29 04:43:21;;;;;;;2.22;0.90;;;2.40;99.90;;;;;;4988383;28;20237;-73
2020/12/29 04:45:49;;;;;;;2.28;1.15;;;2.50;99.90;;;;;;4989054;28;20225;-73
2020/12/29 04:48:15;;;;;;;1.80;0.90;;;2.50;99.90;;;;;;4989067;28;20227;-73
2020/12/29 04:50:43;;;;;;;2.95;0.80;;;2.60;99.90;;;;;;4988876;28;20211;-72
2020/12/29 04:53:16;;;;;;;1.38;0.75;;;2.60;99.90;;;;;;4988359;28;20791;-72
2020/12/29 04:55:44;;;;;;;3.08;1.02;;;2.60;99.90;;;;;;4988894;28;20296;-72
2020/12/29 04:58:11;;;;;;;3.42;1.08;;;2.50;99.90;;;;;;4988919;28;20241;-73
2020/12/29 05:00:37;;;;;;;0.88;0.70;;;2.50;99.90;;;;;;4988735;28;20765;-73
2020/12/29 05:03:04;;;;;;;1.38;0.80;;;2.50;99.90;;;;;;4991797;28;20241;-74
2020/12/29 05:05:30;;;;;;;1.00;0.80;;;2.50;99.90;;;;;;4992129;28;20206;-73
2020/12/29 05:07:56;;;;;;;1.70;0.90;;;2.50;99.90;;;;;;4992236;28;20203;-73
2020/12/29 05:10:22;;;;;;;1.45;1.10;;;2.40;99.90;;;;;;4992068;28;20576;-73
2020/12/29 05:12:49;;;;;;;1.10;0.90;;;2.40;99.90;;;;;;4991490;28;20215;-73
2020/12/29 05:15:17;;;;;;;2.38;0.90;;;2.40;99.90;;;;;;4992104;28;20231;-73
2020/12/29 05:17:44;;;;;;;1.20;1.10;;;2.40;99.90;;;;;;4992042;28;20211;-74
2020/12/29 05:20:10;;;;;;;2.00;0.90;;;2.40;99.90;;;;;;4992033;28;20210;-74
2020/12/29 05:22:38;;;;;;;1.17;0.88;;;2.40;99.90;;;;;;4991224;28;20203;-74
2020/12/29 05:25:06;;;;;;;2.78;0.95;;;2.40;99.90;;;;;;4992310;28;20199;-74
2020/12/29 05:27:36;;;;;;;1.30;1.10;;;2.40;99.90;;;;;;4991806;28;20205;-73
2020/12/29 05:30:03;;;;;;;1.38;1.10;;;2.40;99.90;;;;;;4992219;28;20218;-74
2020/12/29 05:32:31;;;;;;;2.13;1.00;;;2.40;99.90;;;;;;4991061;28;20207;-74
2020/12/29 05:34:58;;;;;;;2.97;0.93;;;2.40;99.90;;;;;;4991946;28;20293;-74
2020/12/29 05:37:26;;;;;;;0.98;0.73;;;2.40;99.90;;;;;;4991633;28;20206;-73
2020/12/29 05:39:52;;;;;;;1.08;0.70;;;2.50;99.90;;;;;;4991775;28;20294;-74
2020/12/29 05:42:25;;;;;;;1.58;1.00;;;2.50;99.90;;;;;;4991091;28;20207;-74
2020/12/29 05:44:52;;;;;;;1.20;1.05;;;2.40;99.90;;;;;;4991416;28;20254;-74
2020/12/29 05:47:21;;;;;;;2.25;1.40;;;2.40;99.90;;;;;;4991519;28;20259;-73
2020/12/29 05:49:48;;;;;;;1.00;0.90;;;2.40;99.90;;;;;;4991321;28;20234;-74
2020/12/29 05:52:15;;;;;;;1.70;1.17;;;2.30;99.90;;;;;;4991564;28;20231;-74
2020/12/29 05:54:43;;;;;;;3.10;0.80;;;2.40;99.90;;;;;;4991458;28;20258;-74
2020/12/29 05:57:12;;;;;;;1.67;1.00;;;2.30;99.90;;;;;;4991636;28;20206;-73
2020/12/29 05:59:39;;;;;;;1.05;0.88;;;2.30;99.90;;;;;;4991218;28;20627;-74
2020/12/29 06:02:08;;;;;;;1.90;1.10;;;2.30;99.90;;;;;;4990550;28;20253;-73
2020/12/29 06:04:37;;;;;;;1.25;1.00;;;2.30;99.90;;;;;;4990988;28;20230;-73
2020/12/29 06:07:05;;;;;;;1.65;0.85;;;2.20;99.90;;;;;;4991270;28;20210;-74
2020/12/29 06:09:33;;;;;;;1.20;1.10;;;2.20;99.90;;;;;;4990867;28;20241;-73
2020/12/29 06:12:00;;;;;;;2.97;0.90;;;2.20;99.90;;;;;;4990625;28;20678;-73
2020/12/29 06:14:27;;;;;;;1.98;0.95;;;2.20;99.90;;;;;;4990724;28;20231;-73
2020/12/29 06:16:55;;;;;;;2.08;1.20;;;2.20;99.90;;;;;;4991143;28;20199;-73
2020/12/29 06:19:24;;;;;;;1.88;1.50;;;2.20;99.90;;;;;;4991034;28;20616;-73
2020/12/29 06:22:05;;;;;;;2.35;1.30;;;2.10;99.90;;;;;;4990602;28;20670;-73
2020/12/29 06:24:33;;;;;;;1.10;0.90;;;2.10;99.90;;;;;;4990391;28;20223;-74
2020/12/29 06:27:01;;;;;;;3.67;0.90;;;2.20;99.90;;;;;;4990927;28;20698;-73
2020/12/29 06:29:35;;;;;;;1.10;1.00;;;2.10;99.90;;;;;;4990453;28;20588;-73
2020/12/29 06:32:09;;;;;;;1.73;1.17;;;2.10;99.90;;;;;;4989841;28;20238;-73
2020/12/29 06:34:36;;;;;;;1.40;1.00;;;2.20;99.90;;;;;;4990436;28;20232;-74
2020/12/29 06:37:09;;;;;;;2.00;1.00;;;2.10;99.90;;;;;;4990740;28;20261;-73
2020/12/29 06:39:41;;;;;;;1.38;0.80;;;2.10;99.90;;;;;;4990370;28;20226;-73
2020/12/29 06:42:08;;;;;;;2.35;0.90;;;2.10;99.90;;;;;;4990055;28;20218;-73
2020/12/29 06:44:35;;;;;;;4.28;1.20;;;2.10;99.90;;;;;;4990122;28;20224;-73
2020/12/29 06:47:08;;;;;;;1.58;1.00;;;2.10;99.90;;;;;;4990472;28;20733;-73
2020/12/29 06:49:34;;;;;;;2.17;1.23;;;2.10;99.90;;;;;;4990084;28;20238;-73
2020/12/29 06:52:19;;;;;;;2.42;0.90;;;2.00;99.90;;;;;;4990105;28;20207;-73
2020/12/29 06:54:52;;;;;;;2.67;1.20;;;2.00;99.90;;;;;;4990320;28;20646;-74
2020/12/29 06:57:22;;;;;;;1.80;1.10;;;2.00;99.90;;;;;;4990475;28;20215;-74
2020/12/29 06:59:49;;;;;;;2.42;1.25;;;2.00;99.90;;;;;;4989790;28;20206;-74
2020/12/29 07:02:19;;;;;;;1.05;0.90;;;2.00;99.90;;;;;;5053676;22;20236;-71
2020/12/29 07:04:53;;;;;;;3.38;1.10;;;2.00;99.90;;;;;;4963026;28;20254;-71
2020/12/29 07:07:33;;;;;;;1.60;0.90;;;2.10;99.90;;;;;;4970536;28;20203;-70
2020/12/29 07:10:01;;;;;;;1.75;1.17;;;2.10;99.90;;;;;;4970603;28;20706;-71
2020/12/29 07:12:31;;;;;;;1.17;0.90;;;2.10;99.90;;;;;;4969972;28;20211;-70
2020/12/29 07:15:00;;;;;;;2.60;1.65;;;2.10;99.90;;;;;;4970335;28;20661;-71
2020/12/29 07:17:30;;;;;;;3.28;1.45;;;2.10;99.90;;;;;;4970557;28;20204;-70
2020/12/29 07:19:56;;;;;;;2.17;1.00;;;2.10;99.90;;;;;;4970554;28;20207;-70
2020/12/29 07:22:25;;;;;;;1.77;1.13;;;2.20;99.90;;;;;;4969803;28;20204;-70
2020/12/29 07:24:51;;;;;;;2.05;1.05;;;2.20;99.90;;;;;;4969758;28;20224;-71
2020/12/29 07:27:20;;;;;;;2.20;1.20;;;2.10;99.90;;;;;;4970354;28;20266;-70
2020/12/29 07:29:54;;;;;;;2.40;1.10;;;2.10;99.90;;;;;;4969876;28;20227;-71
2020/12/29 07:32:20;;;;;;;1.73;1.00;;;2.20;99.90;;;;;;4969639;28;20677;-71
2020/12/29 07:34:47;;;;;;;1.70;1.30;;;2.20;99.90;;;;;;4969784;28;20375;-71
2020/12/29 07:37:16;;;;;;;2.40;1.35;;;2.20;99.90;;;;;;4970152;28;20706;-70
2020/12/29 07:39:44;;;;;;;1.10;1.00;;;2.20;99.90;;;;;;4969820;28;20239;-70
2020/12/29 07:42:12;;;;;;;2.67;1.30;;;2.20;99.90;;;;;;4969435;28;20642;-71
2020/12/29 07:44:39;;;;;;;2.05;1.17;;;2.30;99.90;;;;;;4969838;28;20334;-71
2020/12/29 07:47:05;;;;;;;1.73;1.30;;;2.30;99.90;;;;;;4970249;28;20572;-70
2020/12/29 07:49:31;;;;;;;2.90;1.80;;;2.30;99.90;;;;;;4969803;28;20246;-71
2020/12/29 07:51:57;;;;;;;1.55;0.95;;;2.30;99.90;;;;;;4969365;28;20204;-70
2020/12/29 07:54:23;;;;;;;1.25;0.90;;;2.40;99.90;;;;;;4969715;28;20236;-70
2020/12/29 07:56:51;;;;;;;2.17;1.00;;;2.40;99.90;;;;;;4969887;28;20208;-71
2020/12/29 07:59:17;;;;;;;4.43;1.20;;;2.50;99.90;;;;;;4970063;28;20210;-71
2020/12/29 08:01:55;;;;;;;3.15;1.33;;;2.50;99.90;;;;;;4969209;28;20233;-70
2020/12/29 08:04:29;;;;;;;1.40;1.00;;;2.50;99.90;;;;;;4970063;28;20607;-71
2020/12/29 08:06:56;;;;;;;2.10;1.30;;;2.50;99.90;;;;;;4969889;28;20242;-70
2020/12/29 08:09:22;;;;;;;4.75;1.40;;;2.50;99.90;;;;;;4969814;28;20214;-70
2020/12/29 08:11:49;;;;;;;1.83;1.00;;;2.60;99.90;;;;;;4969011;28;20207;-71
2020/12/29 08:14:16;;;;;;;5.55;1.15;;;2.70;99.90;;;;;;4969714;28;20223;-70
2020/12/29 08:16:42;;;;;;;1.58;1.25;;;2.70;99.90;;;;;;4969491;28;20207;-70
2020/12/29 08:19:09;;;;;;;1.95;1.30;;;2.70;99.90;;;;;;4969814;28;20204;-70
2020/12/29 08:21:37;;;;;;;1.50;1.40;;;2.70;99.90;;;;;;4969060;28;20226;-70
2020/12/29 08:24:04;;;;;;;1.80;1.10;;;2.70;99.90;;;;;;4969705;28;20255;-70
2020/12/29 08:26:30;;;;;;;3.85;1.40;;;2.70;99.90;;;;;;4969395;28;20412;-70
2020/12/29 08:28:56;;;;;;;2.05;1.15;;;2.80;99.90;;;;;;4969853;28;20219;-70
2020/12/29 08:31:26;;;;;;;1.48;1.00;;;2.80;99.90;;;;;;4969439;28;20687;-70
2020/12/29 08:33:54;;;;;;;2.45;1.60;;;2.80;99.90;;;;;;4968824;28;20235;-70
2020/12/29 08:36:25;;;;;;;4.35;1.52;;;2.90;99.90;;;;;;4970896;28;20231;-70
2020/12/29 08:39:08;;;;;;;1.05;0.90;;;2.90;99.90;;;;;;4973394;28;20604;-70
2020/12/29 08:41:38;;;;;;;2.00;1.10;;;2.80;99.90;;;;;;4972534;28;20207;-71
2020/12/29 08:44:08;;;;;;;1.38;1.27;;;2.90;99.90;;;;;;4973351;28;20228;-71
2020/12/29 08:46:36;;;;;;;2.13;1.10;;;2.90;99.90;;;;;;4972882;28;20243;-70
2020/12/29 08:49:04;;;;;;;1.73;1.48;;;2.90;99.90;;;;;;4973425;28;20231;-70
2020/12/29 08:51:32;;;;;;;3.42;1.52;;;2.90;99.90;;;;;;4970889;28;20558;-70
2020/12/29 08:54:09;;;;;;;1.25;1.02;;;2.90;99.90;;;;;;4971206;28;20224;-70
2020/12/29 08:56:36;;;;;;;2.83;1.20;;;2.90;99.90;;;;;;4970313;28;20227;-71
2020/12/29 08:59:09;;;;;;;1.85;1.20;;;3.00;99.90;;;;;;4971122;28;20203;-71
2020/12/29 09:01:38;;;;;;;4.97;1.63;;;3.00;99.90;;;;;;4969380;28;20204;-71
2020/12/29 09:04:24;;;;;;;2.47;1.40;;;3.10;99.90;;;;;;4970952;28;20282;-72
2020/12/29 09:06:58;;;;;;;1.60;1.05;;;3.10;99.90;;;;;;4971335;28;20322;-72
2020/12/29 09:09:24;;;;;;;1.00;0.85;;;3.00;99.90;;;;;;4976425;28;20282;-71
2020/12/29 09:12:05;;;;;;;1.20;1.10;;;3.00;99.90;;;;;;4969503;28;20223;-70
2020/12/29 09:14:32;;;;;;;2.78;1.30;;;2.90;99.90;;;;;;4972234;28;20621;-71
2020/12/29 09:17:03;;;;;;;1.00;0.90;;;2.90;99.90;;;;;;4975927;28;20587;-71
2020/12/29 09:19:30;;;;;;;1.40;1.13;;;2.90;99.90;;;;;;4970508;28;20208;-71
2020/12/29 09:22:07;;;;;;;1.45;1.35;;;2.80;99.90;;;;;;4969638;28;20212;-71
2020/12/29 09:24:33;;;;;;;1.45;1.35;;;2.80;99.90;;;;;;4970203;28;20223;-71
2020/12/29 09:27:00;;;;;;;4.28;1.38;;;2.80;99.90;;;;;;4969882;28;20641;-71
2020/12/29 09:29:26;;;;;;;1.55;1.05;;;2.60;99.90;;;;;;4969933;28;20207;-71
2020/12/29 09:31:54;;;;;;;1.00;0.90;;;2.50;99.90;;;;;;4969762;28;20211;-71
2020/12/29 09:34:24;;;;;;;1.95;1.20;;;2.50;99.90;;;;;;4969965;28;20313;-70
2020/12/29 09:36:51;;;;;;;1.42;1.20;;;2.40;99.90;;;;;;4969206;28;20580;-71
2020/12/29 09:39:17;;;;;;;1.98;1.20;;;2.50;99.90;;;;;;4969775;28;20384;-71
2020/12/29 09:41:43;;;;;;;1.30;1.10;;;2.50;99.90;;;;;;4968559;28;20758;-70
2020/12/29 09:44:10;;;;;;;1.23;1.10;;;2.40;99.90;;;;;;4969354;28;20231;-71
2020/12/29 09:46:37;;;;;;;1.27;1.10;;;2.50;99.90;;;;;;4969058;28;20223;-71
2020/12/29 09:49:04;;;;;;;1.30;1.20;;;2.50;99.90;;;;;;4963709;28;20207;-71
2020/12/29 09:51:32;;;;;;;1.48;1.30;;;2.70;99.90;;;;;;4966552;28;20217;-71
2020/12/29 09:53:59;;;;;;;3.25;1.50;;;2.70;99.90;;;;;;4967787;28;20227;-71
2020/12/29 09:56:25;;;;;;;1.40;1.30;;;2.80;99.90;;;;;;4967979;28;20223;-71
2020/12/29 09:58:51;;;;;;;1.77;1.15;;;2.90;99.90;;;;;;4963758;28;20246;-71
2020/12/29 10:01:18;;;;;;;3.17;1.48;;;3.00;99.90;;;;;;4964986;28;20196;-71
2020/12/29 10:03:44;;;;;;;1.75;1.13;;;3.10;99.90;;;;;;4965378;28;20345;-71
2020/12/29 10:06:11;;;;;;;1.83;1.00;;;3.20;99.90;;;;;;4965237;28;20227;-71
2020/12/29 10:08:38;;;;;;;1.35;1.00;;;3.30;99.90;;;;;;4964273;28;20203;-71
2020/12/29 10:11:05;;;;;;;1.40;0.95;;;3.50;99.90;;;;;;4963180;28;20204;-72
2020/12/29 10:13:31;;;;;;;2.65;1.00;;;3.60;99.90;;;;;;4963845;28;20235;-72
2020/12/29 10:15:58;;;;;;;1.55;1.08;;;3.60;99.90;;;;;;4964928;28;20715;-72
2020/12/29 10:18:24;;;;;;;1.15;1.05;;;3.60;99.90;;;;;;4966201;28;20204;-72
2020/12/29 10:20:51;;;;;;;1.02;0.90;;;3.60;99.90;;;;;;4964577;28;20212;-72
2020/12/29 10:23:18;;;;;;;1.20;1.00;;;3.70;99.90;;;;;;4966124;28;20230;-72
2020/12/29 10:25:45;;;;;;;1.30;1.10;;;3.70;99.90;;;;;;4964242;28;20204;-71
2020/12/29 10:28:11;;;;;;;1.77;1.10;;;3.80;99.90;;;;;;4966790;28;20211;-71
2020/12/29 10:30:38;;;;;;;1.60;1.00;;;3.80;99.90;;;;;;4964756;28;20210;-72
2020/12/29 10:33:04;;;;;;;1.33;1.10;;;3.90;99.90;;;;;;4965206;28;20686;-71
2020/12/29 10:35:30;;;;;;;1.05;0.95;;;4.00;99.90;;;;;;4962727;28;20730;-71
2020/12/29 10:37:57;;;;;;;1.00;0.80;;;4.00;99.90;;;;;;4963259;28;20669;-71
2020/12/29 10:40:23;;;;;;;1.20;1.10;;;4.10;99.90;;;;;;4964109;28;21181;-72
2020/12/29 10:42:51;;;;;;;1.00;0.90;;;4.10;99.90;;;;;;4954616;28;20208;-71
2020/12/29 10:45:17;;;;;;;0.98;0.75;;;4.00;99.90;;;;;;4965037;28;20200;-71
2020/12/29 10:47:43;;;;;;;0.80;0.70;;;4.10;99.90;;;;;;4965977;28;20686;-72
2020/12/29 10:50:09;;;;;;;3.35;1.10;;;4.10;99.90;;;;;;4966034;28;20231;-71
2020/12/29 10:52:36;;;;;;;0.98;0.85;;;4.00;99.90;;;;;;4965645;28;20203;-71
2020/12/29 10:55:02;;;;;;;1.00;0.90;;;4.10;99.90;;;;;;4965250;28;20238;-72
2020/12/29 10:57:29;;;;;;;1.30;0.90;;;4.30;99.90;;;;;;4968110;28;20203;-72
2020/12/29 10:59:56;;;;;;;0.95;0.85;;;4.50;99.90;;;;;;4965043;28;20208;-72
2020/12/29 11:02:25;;;;;;;1.20;0.80;;;4.50;99.90;;;;;;4965407;28;20741;-71
2020/12/29 11:04:52;;;;;;;1.42;1.13;;;4.60;99.90;;;;;;4967265;28;20286;-72
2020/12/29 11:07:18;;;;;;;1.15;0.88;;;4.70;99.90;;;;;;4967959;28;20803;-74
2020/12/29 11:09:47;;;;;;;1.45;0.80;;;4.70;99.90;;;;;;4968115;28;20736;-71
2020/12/29 11:12:14;;;;;;;0.88;0.80;;;4.60;99.90;;;;;;4961660;28;20208;-71
2020/12/29 11:14:40;;;;;;;1.17;0.80;;;4.70;99.90;;;;;;4965885;28;20740;-71
2020/12/29 11:17:07;;;;;;;0.90;0.80;;;4.80;99.90;;;;;;4967831;28;20211;-72
2020/12/29 11:19:34;;;;;;;1.20;0.90;;;5.10;99.90;;;;;;4965177;28;20290;-71
2020/12/29 11:22:03;;;;;;;1.20;0.80;;;5.50;99.90;;;;;;4966034;28;20204;-72
2020/12/29 11:24:30;;;;;;;0.90;0.80;;;6.30;99.90;;;;;;4963644;28;20222;-71
2020/12/29 11:26:56;;;;;;;1.00;0.90;;;7.30;99.90;;;;;;4965750;28;20204;-72
2020/12/29 11:29:23;;;;;;;1.00;0.80;;;7.60;99.90;;;;;;4966541;28;20212;-72
2020/12/29 11:31:49;;;;;;;1.15;0.90;;;8.10;99.90;;;;;;4965060;28;20212;-72
2020/12/29 11:34:16;;;;;;;0.85;0.70;;;9.60;99.90;;;;;;4965934;28;20231;-73
2020/12/29 11:36:42;;;;;;;1.17;0.85;;;10.70;99.90;;;;;;4965076;28;20227;-72
2020/12/29 11:39:09;;;;;;;0.80;0.68;;;11.30;99.90;;;;;;4965518;28;20208;-72
2020/12/29 11:41:35;;;;;;;1.00;0.90;;;11.30;99.90;;;;;;4965237;28;20204;-71
2020/12/29 11:44:01;;;;;;;1.00;0.80;;;11.10;99.90;;;;;;4963974;28;20261;-71
2020/12/29 11:46:28;;;;;;;1.20;0.85;;;9.90;99.90;;;;;;4965628;28;20613;-73
2020/12/29 11:48:54;;;;;;;0.80;0.60;;;9.10;99.90;;;;;;4965754;28;20246;-73
2020/12/29 11:51:21;;;;;;;0.90;0.70;;;8.20;99.90;;;;;;4964994;28;20302;-73
2020/12/29 11:53:47;;;;;;;1.88;0.90;;;7.70;99.90;;;;;;4967877;28;20229;-73
2020/12/29 11:56:14;;;;;;;2.25;0.80;;;7.50;99.90;;;;;;4964873;28;20223;-73
2020/12/29 11:58:40;;;;;;;1.10;0.90;;;7.20;99.90;;;;;;4965527;28;20208;-73
2020/12/29 12:01:07;;;;;;;1.70;0.70;;;7.00;99.90;;;;;;4966857;28;20571;-73
2020/12/29 12:03:33;;;;;;;1.10;1.00;;;6.90;99.90;;;;;;4964954;28;20227;-72
2020/12/29 12:06:00;;;;;;;1.00;0.80;;;6.80;99.90;;;;;;4965386;28;20204;-73
2020/12/29 12:08:27;;;;;;;1.35;1.20;;;6.50;99.90;;;;;;4963145;28;20204;-73
2020/12/29 12:10:53;;;;;;;1.70;1.10;;;6.50;99.90;;;;;;4972180;28;20204;-72
2020/12/29 12:13:20;;;;;;;2.67;0.95;;;6.90;99.90;;;;;;4967820;28;20599;-73
2020/12/29 12:15:46;;;;;;;0.80;0.80;;;7.50;99.90;;;;;;4968575;28;20239;-72
2020/12/29 12:18:13;;;;;;;1.20;0.80;;;7.60;99.90;;;;;;4969937;28;20761;-73
2020/12/29 12:20:39;;;;;;;3.25;0.90;;;7.40;99.90;;;;;;4968505;28;20302;-72
2020/12/29 12:23:05;;;;;;;1.30;1.10;;;7.20;99.90;;;;;;4969801;28;20223;-73
2020/12/29 12:25:34;;;;;;;1.55;0.70;;;6.40;99.90;;;;;;4966758;28;20307;-72
2020/12/29 12:28:01;;;;;;;0.90;0.80;;;5.80;99.90;;;;;;4968456;28;20211;-72
2020/12/29 12:30:27;;;;;;;1.20;1.00;;;5.40;99.90;;;;;;4968826;28;20284;-72
2020/12/29 12:32:53;;;;;;;1.50;1.20;;;5.20;99.90;;;;;;4968077;28;20238;-72
2020/12/29 12:35:20;;;;;;;1.38;1.00;;;5.10;99.90;;;;;;4969179;28;20792;-72
2020/12/29 12:37:46;;;;;;;2.40;1.08;;;5.00;99.90;;;;;;4968467;28;20302;-72
2020/12/29 12:40:13;;;;;;;0.90;0.80;;;5.10;99.90;;;;;;4968795;28;20295;-73
2020/12/29 12:42:40;;;;;;;1.33;0.80;;;5.20;99.90;;;;;;4967555;28;20296;-73
2020/12/29 12:45:06;;;;;;;1.63;0.98;;;5.40;99.90;;;;;;4968563;28;20212;-73
2020/12/29 12:47:32;;;;;;;1.70;0.95;;;5.40;99.90;;;;;;4968383;28;20817;-73
2020/12/29 12:49:59;;;;;;;2.08;1.13;;;5.50;99.90;;;;;;4968057;28;20212;-73
2020/12/29 12:52:25;;;;;;;1.02;0.93;;;6.00;99.90;;;;;;4967687;28;20211;-73
2020/12/29 12:54:51;;;;;;;1.15;1.02;;;6.80;99.90;;;;;;4967098;28;20277;-74
2020/12/29 12:57:18;;;;;;;1.45;1.35;;;7.50;99.90;;;;;;4968115;28;20623;-74
2020/12/29 12:59:45;;;;;;;1.67;1.00;;;8.10;99.90;;;;;;4968641;28;20432;-74
2020/12/29 13:02:11;;;;;;;3.30;0.98;;;8.60;99.90;;;;;;4967780;28;20220;-72